Time;durP1;ratioP1;P1;durP2;ratioP2;P2;SDS_P1;SDS_P2;PMS_P1;PMS_P2;Temp;Humidity;BMP_temperature;BMP_pressure;BME280_temperature;BME280_humidity;BME280_pressure;Samples;Min_cycle;Max_cycle;Signal;HPM_P1;HPM_P2
2021/05/06 00:14:48;;;;;;;1.73;1.30;;;6.20;99.90;;;;;;4897477;29;20411;-75
2021/05/06 00:33:14;;;;;;;2.63;1.50;;;6.00;99.90;;;;;;4898475;29;20418;-74
2021/05/06 00:35:41;;;;;;;2.95;1.33;;;5.90;99.90;;;;;;4878791;29;20415;-75
2021/05/06 00:38:13;;;;;;;1.35;1.20;;;6.00;99.90;;;;;;4890327;29;20465;-74
2021/05/06 00:40:59;;;;;;;1.30;1.20;;;5.80;99.90;;;;;;4893384;29;20463;-75
2021/05/06 00:56:52;;;;;;;2.20;1.27;;;5.70;99.90;;;;;;4897142;29;20401;-76
2021/05/06 01:09:37;;;;;;;1.60;1.33;;;5.60;99.90;;;;;;4881261;29;21176;-76
2021/05/06 01:12:04;;;;;;;1.55;1.30;;;5.60;99.90;;;;;;4882772;29;20417;-76
2021/05/06 01:14:32;;;;;;;1.42;1.33;;;5.50;99.90;;;;;;4874780;29;20413;-76
2021/05/06 01:16:58;;;;;;;1.27;1.17;;;5.50;99.90;;;;;;4886080;29;20462;-76
2021/05/06 01:19:24;;;;;;;1.27;1.17;;;5.40;99.90;;;;;;4899114;29;20956;-76
2021/05/06 01:21:54;;;;;;;2.08;1.40;;;5.40;99.90;;;;;;4883487;29;21003;-77
2021/05/06 01:24:20;;;;;;;1.85;1.30;;;5.40;99.90;;;;;;4895744;29;20429;-76
2021/05/06 01:29:22;;;;;;;1.47;1.23;;;5.30;99.90;;;;;;4898255;29;20795;-76
2021/05/06 01:31:54;;;;;;;1.33;1.23;;;5.20;99.90;;;;;;4885260;29;20427;-76
2021/05/06 01:34:22;;;;;;;2.42;1.23;;;5.20;99.90;;;;;;4881980;29;20405;-76
2021/05/06 01:36:54;;;;;;;1.15;1.05;;;5.20;99.90;;;;;;4899366;29;20411;-76
2021/05/06 01:42:07;;;;;;;1.27;1.17;;;5.10;99.90;;;;;;4903797;29;21041;-76
2021/05/06 01:58:50;;;;;;;1.30;1.02;;;4.90;99.90;;;;;;4860730;29;20428;-77
2021/05/06 02:01:15;;;;;;;1.88;1.33;;;4.80;99.90;;;;;;4893669;29;20486;-76
2021/05/06 02:03:41;;;;;;;2.60;1.40;;;4.80;99.90;;;;;;4907958;29;20480;-76
2021/05/06 02:06:07;;;;;;;1.45;1.35;;;4.80;99.90;;;;;;4892361;29;20943;-76
2021/05/06 02:08:32;;;;;;;1.40;1.30;;;4.70;99.90;;;;;;4886884;29;20401;-76
2021/05/06 02:11:10;;;;;;;2.30;1.40;;;4.80;99.90;;;;;;4881826;29;20801;-77
2021/05/06 02:13:55;;;;;;;1.40;1.30;;;4.80;99.90;;;;;;4883982;29;20410;-76
2021/05/06 02:16:33;;;;;;;1.10;1.10;;;4.70;99.90;;;;;;4877361;29;20405;-76
2021/05/06 02:19:00;;;;;;;2.60;1.30;;;4.70;99.90;;;;;;4883228;29;20406;-76
2021/05/06 02:21:26;;;;;;;1.20;1.20;;;4.70;99.90;;;;;;4881587;29;20411;-78
2021/05/06 02:23:56;;;;;;;1.63;1.52;;;4.60;99.90;;;;;;4898840;29;20428;-77
2021/05/06 02:26:21;;;;;;;1.03;1.03;;;4.70;99.90;;;;;;4881400;29;20523;-76
2021/05/06 02:28:47;;;;;;;2.28;1.40;;;4.70;99.90;;;;;;4889986;29;20662;-76
2021/05/06 02:31:14;;;;;;;2.67;1.30;;;4.70;99.90;;;;;;4897293;29;20415;-76
2021/05/06 02:33:43;;;;;;;1.50;1.40;;;4.70;99.90;;;;;;4897589;29;20835;-76
2021/05/06 02:36:09;;;;;;;1.83;1.33;;;4.60;99.90;;;;;;4894306;29;20476;-76
2021/05/06 02:38:34;;;;;;;1.50;1.30;;;4.60;99.90;;;;;;4914446;29;20536;-77
2021/05/06 02:41:00;;;;;;;1.88;1.40;;;4.60;99.90;;;;;;4900744;29;20427;-76
2021/05/06 02:43:26;;;;;;;1.52;1.42;;;4.60;99.90;;;;;;4905485;29;20770;-76
2021/05/06 02:45:52;;;;;;;3.33;1.43;;;4.60;99.90;;;;;;4873779;29;20411;-75
2021/05/06 02:48:17;;;;;;;2.20;1.55;;;4.60;99.90;;;;;;4890248;29;20562;-76
2021/05/06 02:50:47;;;;;;;1.63;1.52;;;4.50;99.90;;;;;;4896810;29;20560;-75
2021/05/06 02:53:17;;;;;;;2.30;1.48;;;4.50;99.90;;;;;;4897641;29;20978;-75
2021/05/06 03:03:21;;;;;;;1.45;1.20;;;4.50;99.90;;;;;;4896386;29;20415;-76
2021/05/06 03:05:53;;;;;;;1.60;1.50;;;4.40;99.90;;;;;;4895955;29;20408;-76
2021/05/06 03:08:42;;;;;;;3.00;1.58;;;4.40;99.90;;;;;;4903540;29;21227;-76
2021/05/06 03:14:07;;;;;;;1.50;1.40;;;4.40;99.90;;;;;;4899700;29;21051;-75
2021/05/06 03:24:20;;;;;;;2.88;1.63;;;4.30;99.90;;;;;;4876964;29;20405;-77
2021/05/06 03:26:46;;;;;;;1.60;1.50;;;4.30;99.90;;;;;;4904892;29;20401;-76
2021/05/06 03:29:15;;;;;;;1.60;1.50;;;4.30;99.90;;;;;;4881185;29;20403;-77
2021/05/06 04:17:44;;;;;;;2.65;1.52;;;4.20;99.90;;;;;;4921272;29;20446;-77
2021/05/06 04:25:49;;;;;;;2.10;1.80;;;4.30;99.90;;;;;;4892811;29;20826;-75
2021/05/06 04:35:54;;;;;;;2.50;2.30;;;4.50;99.90;;;;;;4884864;29;20415;-76
2021/05/06 04:38:22;;;;;;;1.70;1.60;;;4.50;99.90;;;;;;4895718;29;20491;-75
2021/05/06 04:59:26;;;;;;;2.17;1.98;;;5.20;99.90;;;;;;4908706;29;21022;-77
2021/05/06 05:03:20;;;;;;;2.38;2.17;;;5.30;99.90;;;;;;4889673;29;20942;-77
2021/05/06 05:04:48;;;;;;;2.10;2.00;;;5.40;99.90;;;;;;4901847;29;20422;-77
2021/05/06 05:07:19;;;;;;;2.20;2.00;;;5.50;99.90;;;;;;4893479;29;20916;-78
2021/05/06 05:12:46;;;;;;;4.32;2.58;;;5.70;99.90;;;;;;4886278;29;20538;-78
2021/05/06 05:17:36;;;;;;;2.50;2.07;;;5.80;99.90;;;;;;4895545;29;20402;-79
2021/05/06 05:20:53;;;;;;;2.50;2.03;;;6.00;99.90;;;;;;4875749;29;20424;-79
2021/05/06 05:25:47;;;;;;;2.40;2.20;;;6.20;99.90;;;;;;4897207;29;20411;-80
2021/05/06 05:28:13;;;;;;;2.30;2.10;;;6.30;99.90;;;;;;4886100;29;20412;-81
2021/05/06 05:30:39;;;;;;;2.00;1.90;;;6.40;99.90;;;;;;4911180;29;20400;-80
2021/05/06 05:33:10;;;;;;;2.50;2.30;;;6.50;99.90;;;;;;4882755;29;20413;-78
2021/05/06 05:38:22;;;;;;;2.30;2.13;;;6.60;99.90;;;;;;4884968;29;20407;-78
2021/05/06 05:56:36;;;;;;;2.50;2.00;;;7.30;99.90;;;;;;4918077;29;20471;-78
2021/05/06 05:59:02;;;;;;;2.28;2.15;;;7.30;99.90;;;;;;4904058;29;20487;-78
2021/05/06 06:01:29;;;;;;;2.17;2.08;;;7.40;99.90;;;;;;4850683;29;20505;-77
2021/05/06 06:03:55;;;;;;;2.60;2.40;;;7.50;99.90;;;;;;4913448;29;20411;-78
2021/05/06 06:06:21;;;;;;;2.30;2.10;;;7.60;99.90;;;;;;4881535;29;20406;-78
2021/05/06 06:08:47;;;;;;;2.30;2.13;;;7.70;99.90;;;;;;4915420;29;20415;-78
2021/05/06 06:11:13;;;;;;;2.50;2.30;;;7.80;99.90;;;;;;4899729;29;20535;-78
2021/05/06 06:13:38;;;;;;;3.72;2.30;;;8.00;99.90;;;;;;4874100;29;20963;-78
2021/05/06 06:16:22;;;;;;;2.55;2.25;;;8.00;99.90;;;;;;4879411;29;20400;-79
2021/05/06 06:18:59;;;;;;;2.58;2.38;;;8.00;99.90;;;;;;4883850;29;20411;-78
2021/05/06 06:23:51;;;;;;;2.30;2.10;;;8.20;99.90;;;;;;4932546;29;20485;-78
2021/05/06 06:26:17;;;;;;;2.17;2.03;;;8.30;99.90;;;;;;4904257;29;20406;-78
2021/05/06 06:28:48;;;;;;;2.43;2.23;;;8.40;99.90;;;;;;4901665;29;20412;-78
2021/05/06 06:33:39;;;;;;;2.10;2.00;;;8.50;99.90;;;;;;4898944;29;20910;-78
2021/05/06 06:36:06;;;;;;;2.50;2.30;;;8.60;99.90;;;;;;4900396;29;20762;-77
2021/05/06 06:38:32;;;;;;;2.00;1.90;;;8.60;99.90;;;;;;4875067;29;20405;-78
2021/05/06 06:40:58;;;;;;;2.25;2.05;;;8.70;99.90;;;;;;4906308;29;20396;-78
2021/05/06 06:43:23;;;;;;;2.83;2.30;;;8.80;99.90;;;;;;4878929;29;21044;-79
2021/05/06 06:45:50;;;;;;;2.00;1.90;;;8.90;99.90;;;;;;4894623;29;20405;-78
2021/05/06 06:48:18;;;;;;;3.90;2.37;;;8.80;99.90;;;;;;5012126;23;20406;-80
2021/05/06 06:50:47;;;;;;;2.20;2.10;;;8.90;99.90;;;;;;4914681;28;20429;-80
2021/05/06 06:56:46;;;;;;;2.53;2.22;;;9.10;99.90;;;;;;4876144;29;20475;-82
2021/05/06 07:00:31;;;;;;;2.80;1.88;;;9.30;99.90;;;;;;4866255;28;20507;-81
2021/05/06 07:12:26;;;;;;;2.03;1.90;;;9.80;99.90;;;;;;4898398;29;20445;-80
2021/05/06 07:15:49;;;;;;;2.60;1.98;;;10.10;99.90;;;;;;4827128;29;20438;-80
2021/05/06 07:20:01;;;;;;;2.27;2.07;;;10.20;99.90;;;;;;4830223;29;20417;-80
2021/05/06 07:24:19;;;;;;;2.38;2.17;;;10.40;99.90;;;;;;4875232;29;20502;-80
2021/05/06 07:28:37;;;;;;;;;;;;;;;;;;;;;
2021/05/06 07:31:50;;;;;;;2.97;2.23;;;10.70;99.90;;;;;;4774017;29;20430;-80
2021/05/06 07:38:31;;;;;;;2.33;1.80;;;10.50;99.90;;;;;;4837963;29;20434;-80
2021/05/06 07:42:10;;;;;;;2.25;2.13;;;10.40;99.90;;;;;;4840552;29;20423;-80
2021/05/06 07:46:25;;;;;;;2.33;2.13;;;10.20;99.90;;;;;;4818590;29;20415;-80
2021/05/06 07:50:26;;;;;;;2.10;1.95;;;10.30;99.90;;;;;;4864755;29;20527;-80
2021/05/06 07:53:52;;;;;;;2.13;2.00;;;10.30;99.90;;;;;;4852314;29;20510;-80
2021/05/06 07:57:18;;;;;;;2.22;2.03;;;10.50;99.90;;;;;;4864580;29;20498;-82
2021/05/06 08:01:09;;;;;;;2.28;2.08;;;10.40;99.90;;;;;;4798386;29;20439;-81
2021/05/06 08:05:27;;;;;;;2.10;1.90;;;10.70;99.90;;;;;;4863751;29;20433;-81
2021/05/06 08:10:04;;;;;;;1.70;1.60;;;10.70;99.90;;;;;;4790640;29;20487;-81
2021/05/06 08:25:25;;;;;;;1.83;1.73;;;10.70;99.90;;;;;;4783208;29;20431;-81
2021/05/06 08:28:59;;;;;;;2.10;1.90;;;10.90;99.90;;;;;;4915405;23;20416;-78
2021/05/06 08:31:25;;;;;;;1.70;1.60;;;10.90;99.90;;;;;;4898211;29;20868;-78
2021/05/06 08:33:51;;;;;;;1.98;1.88;;;10.70;99.90;;;;;;4890662;29;20810;-79
2021/05/06 08:36:18;;;;;;;2.00;1.80;;;10.70;99.90;;;;;;4909338;29;20408;-78
2021/05/06 08:38:43;;;;;;;2.20;2.00;;;10.70;99.90;;;;;;4894779;29;20403;-78
2021/05/06 08:41:09;;;;;;;1.92;1.83;;;10.60;99.90;;;;;;4881486;29;20410;-78
2021/05/06 08:43:38;;;;;;;1.90;1.80;;;10.70;99.90;;;;;;4894617;29;20894;-79
2021/05/06 08:46:04;;;;;;;3.13;1.95;;;10.60;99.90;;;;;;4877480;29;20488;-79
2021/05/06 08:48:31;;;;;;;2.38;2.17;;;10.50;99.90;;;;;;4862615;29;20401;-79
2021/05/06 08:50:57;;;;;;;1.80;1.70;;;10.40;99.90;;;;;;4854963;29;20409;-79
2021/05/06 08:53:23;;;;;;;1.90;1.80;;;10.20;99.90;;;;;;4887653;29;20420;-79
2021/05/06 08:55:49;;;;;;;1.90;1.80;;;10.60;99.90;;;;;;4880446;29;20408;-78
2021/05/06 08:58:15;;;;;;;2.15;1.95;;;10.70;99.90;;;;;;4913060;29;20411;-79
2021/05/06 09:00:41;;;;;;;2.20;2.00;;;10.70;99.90;;;;;;4887342;29;20780;-78
2021/05/06 09:03:07;;;;;;;2.00;1.80;;;10.60;99.90;;;;;;4932842;29;20437;-78
2021/05/06 09:05:35;;;;;;;3.30;1.83;;;10.50;99.90;;;;;;4912928;29;20409;-78
2021/05/06 09:08:01;;;;;;;2.30;2.00;;;10.50;99.90;;;;;;4853151;29;20839;-79
2021/05/06 09:10:33;;;;;;;2.30;2.10;;;10.90;99.90;;;;;;4892545;29;20447;-78
2021/05/06 09:12:59;;;;;;;2.10;1.80;;;11.20;99.90;;;;;;4909613;29;20487;-79
2021/05/06 09:15:25;;;;;;;2.17;1.95;;;11.20;99.90;;;;;;4887425;29;20747;-77
2021/05/06 09:17:52;;;;;;;1.83;1.50;;;11.10;99.90;;;;;;4901466;29;20420;-78
2021/05/06 09:20:25;;;;;;;1.90;1.80;;;11.30;99.90;;;;;;4884998;29;20487;-78
2021/05/06 09:22:55;;;;;;;1.30;1.30;;;11.50;99.90;;;;;;4917664;29;20395;-77
2021/05/06 09:25:39;;;;;;;1.60;1.50;;;11.90;99.90;;;;;;4881537;29;20494;-81
2021/05/06 09:28:17;;;;;;;1.70;1.60;;;12.10;99.90;;;;;;4910250;29;20405;-81
2021/05/06 09:30:53;;;;;;;1.67;1.58;;;12.50;99.90;;;;;;4887920;29;20472;-80
2021/05/06 09:33:27;;;;;;;2.08;1.58;;;12.80;99.90;;;;;;4897600;29;20824;-79
2021/05/06 09:35:53;;;;;;;2.20;1.50;;;13.10;99.90;;;;;;4866141;29;20409;-78
2021/05/06 09:38:26;;;;;;;1.80;1.40;;;13.10;99.90;;;;;;4867067;29;20449;-81
2021/05/06 09:40:52;;;;;;;1.40;1.30;;;12.90;99.90;;;;;;4896383;29;20955;-80
2021/05/06 09:43:32;;;;;;;1.33;1.27;;;12.40;99.90;;;;;;4867708;29;20405;-80
2021/05/06 09:45:59;;;;;;;1.50;1.40;;;12.20;99.90;;;;;;4881703;29;20413;-80
2021/05/06 09:48:25;;;;;;;1.52;1.42;;;12.20;99.90;;;;;;4855798;29;20421;-81
2021/05/06 09:50:53;;;;;;;3.10;1.40;;;12.30;99.90;;;;;;4862442;29;20443;-80
2021/05/06 09:53:21;;;;;;;1.67;1.40;;;12.60;99.90;;;;;;4929594;29;20415;-80
2021/05/06 09:55:47;;;;;;;1.50;1.40;;;12.90;99.90;;;;;;4931367;29;20934;-81
2021/05/06 09:58:16;;;;;;;1.70;1.60;;;13.20;99.90;;;;;;4907064;29;20432;-81
2021/05/06 10:00:42;;;;;;;1.23;1.23;;;13.40;99.90;;;;;;4915483;29;20415;-80
2021/05/06 10:03:12;;;;;;;1.57;1.47;;;13.60;99.90;;;;;;4885668;29;20415;-81
2021/05/06 10:05:39;;;;;;;1.60;1.50;;;13.80;99.90;;;;;;4899626;29;20830;-81
2021/05/06 10:08:05;;;;;;;1.40;1.30;;;13.80;99.90;;;;;;4884717;29;20462;-81
2021/05/06 10:10:31;;;;;;;1.33;1.23;;;14.00;99.90;;;;;;4898114;29;20415;-81
2021/05/06 10:12:57;;;;;;;1.45;1.27;;;14.10;99.90;;;;;;4884016;29;20899;-81
2021/05/06 10:15:24;;;;;;;1.53;1.13;;;14.60;99.90;;;;;;4883831;29;20403;-81
2021/05/06 10:17:50;;;;;;;2.40;1.10;;;14.90;99.90;;;;;;4885012;29;20482;-81
2021/05/06 10:20:16;;;;;;;0.80;0.80;;;14.90;99.90;;;;;;4900318;29;20922;-82
2021/05/06 10:22:43;;;;;;;1.60;0.90;;;15.10;99.90;;;;;;4915073;29;20508;-80
2021/05/06 10:25:09;;;;;;;0.80;0.80;;;15.20;99.90;;;;;;4900724;29;20471;-81
2021/05/06 10:27:35;;;;;;;0.93;0.93;;;15.10;94.70;;;;;;4884318;29;20840;-81
2021/05/06 10:30:03;;;;;;;1.40;0.95;;;15.10;96.10;;;;;;4885397;29;20436;-81
2021/05/06 10:32:32;;;;;;;1.00;1.00;;;15.10;97.10;;;;;;4883291;29;20491;-80
2021/05/06 10:35:05;;;;;;;0.93;0.90;;;15.00;96.70;;;;;;4877239;29;20407;-81
2021/05/06 10:37:33;;;;;;;0.98;0.90;;;14.90;95.60;;;;;;4891511;29;20894;-81
2021/05/06 10:39:58;;;;;;;2.92;1.05;;;15.20;93.70;;;;;;4882734;29;20816;-81
2021/05/06 10:42:27;;;;;;;0.80;0.80;;;15.40;95.70;;;;;;4864923;29;20449;-81
2021/05/06 10:45:00;;;;;;;3.42;1.00;;;15.60;92.40;;;;;;4902508;29;20479;-80
2021/05/06 10:47:46;;;;;;;0.98;0.98;;;15.20;89.30;;;;;;4886457;29;20497;-81
2021/05/06 10:50:23;;;;;;;1.00;1.00;;;14.90;90.30;;;;;;4900426;29;21077;-80
2021/05/06 10:52:51;;;;;;;1.10;1.00;;;15.30;92.50;;;;;;4916701;29;20926;-80
2021/05/06 10:55:39;;;;;;;0.90;0.90;;;15.90;93.90;;;;;;4879996;29;20705;-80
2021/05/06 10:58:32;;;;;;;0.80;0.80;;;16.10;93.10;;;;;;4903114;29;20477;-81
2021/05/06 11:01:01;;;;;;;0.90;0.90;;;15.80;90.80;;;;;;4883550;29;20487;-80
2021/05/06 11:03:27;;;;;;;0.80;0.80;;;15.40;91.40;;;;;;4913233;29;20465;-79
2021/05/06 11:05:53;;;;;;;1.00;0.90;;;15.20;91.60;;;;;;4882136;29;20407;-79
2021/05/06 11:08:18;;;;;;;0.65;0.65;;;14.60;90.00;;;;;;4880057;29;20428;-79
2021/05/06 11:10:45;;;;;;;0.80;0.80;;;14.50;88.00;;;;;;4910791;29;20424;-80
2021/05/06 11:13:11;;;;;;;0.80;0.80;;;13.90;86.50;;;;;;4921769;29;20423;-79
2021/05/06 11:15:40;;;;;;;0.80;0.80;;;13.80;91.60;;;;;;4897657;29;20400;-81
2021/05/06 11:18:31;;;;;;;0.95;0.95;;;13.40;93.80;;;;;;4921305;29;20407;-82
2021/05/06 11:20:57;;;;;;;0.75;0.75;;;13.60;95.10;;;;;;4913874;29;20410;-81
2021/05/06 11:23:25;;;;;;;1.13;1.08;;;13.60;95.50;;;;;;4898821;29;20481;-81
2021/05/06 11:26:05;;;;;;;1.00;1.00;;;13.50;94.90;;;;;;4901409;29;20420;-81
2021/05/06 11:28:30;;;;;;;0.98;0.90;;;13.20;96.70;;;;;;4906154;29;20427;-82
2021/05/06 11:30:57;;;;;;;1.00;1.00;;;13.10;97.00;;;;;;4930067;29;20802;-82
2021/05/06 11:33:25;;;;;;;0.93;0.93;;;13.10;96.90;;;;;;4915533;29;20414;-82
2021/05/06 11:36:13;;;;;;;2.40;0.90;;;13.10;98.10;;;;;;4914810;29;20786;-81
2021/05/06 11:38:39;;;;;;;0.90;0.90;;;13.00;99.90;;;;;;4882586;29;20407;-81
2021/05/06 11:41:22;;;;;;;0.77;0.77;;;12.80;99.90;;;;;;4912236;29;20434;-81
2021/05/06 11:44:01;;;;;;;3.80;1.10;;;12.90;99.90;;;;;;4898782;29;20400;-81
2021/05/06 11:46:36;;;;;;;1.08;1.00;;;13.40;99.90;;;;;;4900534;29;20544;-82
2021/05/06 11:49:03;;;;;;;1.30;1.02;;;13.80;99.90;;;;;;4895965;29;20405;-82
2021/05/06 11:51:37;;;;;;;1.08;1.00;;;14.00;99.90;;;;;;4865819;29;20892;-80
2021/05/06 11:54:16;;;;;;;0.88;0.88;;;13.50;99.90;;;;;;4879266;29;20416;-82
2021/05/06 11:56:43;;;;;;;1.05;1.05;;;12.70;99.90;;;;;;4881211;29;20417;-82
2021/05/06 11:59:14;;;;;;;1.10;1.00;;;12.20;99.90;;;;;;4898426;29;20443;-82
2021/05/06 12:01:40;;;;;;;1.63;1.10;;;11.60;99.90;;;;;;4892486;29;20405;-82
2021/05/06 12:04:05;;;;;;;0.90;0.90;;;11.40;99.90;;;;;;4909167;29;20404;-83
2021/05/06 12:06:35;;;;;;;1.00;1.00;;;11.40;99.90;;;;;;4893912;29;20432;-81
2021/05/06 12:09:05;;;;;;;0.80;0.80;;;11.40;99.90;;;;;;4877992;29;20545;-80
2021/05/06 12:11:40;;;;;;;0.80;0.80;;;11.20;99.90;;;;;;4894094;29;20410;-81
2021/05/06 12:14:07;;;;;;;0.80;0.80;;;11.10;99.90;;;;;;4905605;29;20400;-81
2021/05/06 12:16:35;;;;;;;0.90;0.90;;;11.10;99.90;;;;;;4880830;29;21059;-82
2021/05/06 12:19:08;;;;;;;0.77;0.77;;;11.40;99.90;;;;;;4882920;29;20407;-81
2021/05/06 12:21:48;;;;;;;1.00;1.00;;;11.90;99.90;;;;;;4878698;29;20401;-81
2021/05/06 12:24:37;;;;;;;0.90;0.90;;;12.10;99.90;;;;;;4910142;29;20447;-80
2021/05/06 12:27:22;;;;;;;1.25;1.10;;;12.10;99.90;;;;;;4878232;29;20447;-81
2021/05/06 12:29:51;;;;;;;1.20;1.10;;;12.30;99.90;;;;;;4913056;29;20413;-81
2021/05/06 12:32:23;;;;;;;0.90;0.90;;;12.80;99.90;;;;;;4894599;29;20417;-81
2021/05/06 12:34:54;;;;;;;1.00;1.00;;;13.30;99.90;;;;;;4888465;29;20823;-82
2021/05/06 12:37:30;;;;;;;0.90;0.90;;;13.80;99.90;;;;;;4901428;29;20415;-82
2021/05/06 12:39:56;;;;;;;1.10;1.05;;;14.10;99.90;;;;;;4904174;29;20862;-81
2021/05/06 12:42:28;;;;;;;0.85;0.85;;;14.70;99.90;;;;;;4886791;29;20475;-81
2021/05/06 12:44:54;;;;;;;1.30;1.00;;;15.30;99.90;;;;;;4886536;29;20442;-81
2021/05/06 12:47:37;;;;;;;0.88;0.88;;;15.60;99.90;;;;;;4909311;29;20403;-82
2021/05/06 12:50:39;;;;;;;1.30;1.20;;;15.60;99.90;;;;;;4912604;29;20400;-82
2021/05/06 12:53:04;;;;;;;1.10;1.00;;;15.30;99.90;;;;;;4914959;29;20931;-82
2021/05/06 12:55:31;;;;;;;1.30;1.17;;;15.20;99.90;;;;;;4915094;29;20408;-81
2021/05/06 12:58:02;;;;;;;1.67;1.17;;;14.80;99.90;;;;;;4899414;29;20409;-81
2021/05/06 13:00:32;;;;;;;0.80;0.80;;;14.60;99.40;;;;;;4892676;29;20417;-80
2021/05/06 13:03:02;;;;;;;0.90;0.90;;;14.20;97.90;;;;;;4897339;29;20451;-80
2021/05/06 13:05:38;;;;;;;0.90;0.90;;;14.00;99.80;;;;;;4916859;29;20422;-80
2021/05/06 13:08:04;;;;;;;1.20;1.10;;;13.80;99.70;;;;;;4912041;29;20420;-81
2021/05/06 13:10:35;;;;;;;0.77;0.77;;;13.40;99.90;;;;;;4903000;29;20400;-82
2021/05/06 13:13:01;;;;;;;0.95;0.95;;;12.10;99.90;;;;;;4919755;29;20422;-82
2021/05/06 13:16:00;;;;;;;0.77;0.77;;;11.70;99.90;;;;;;4902621;29;21010;-83
2021/05/06 13:19:02;;;;;;;0.95;0.95;;;11.60;99.90;;;;;;4917842;29;20451;-81
2021/05/06 13:21:33;;;;;;;1.35;1.25;;;11.30;99.90;;;;;;4909059;29;20407;-83
2021/05/06 13:24:03;;;;;;;2.03;1.27;;;11.00;99.90;;;;;;4895516;29;20407;-83
2021/05/06 13:27:59;;;;;;;1.40;1.08;;;11.10;99.90;;;;;;4908288;29;20977;-80
2021/05/06 13:30:32;;;;;;;0.90;0.90;;;10.90;99.90;;;;;;4899969;29;20447;-83
2021/05/06 13:33:20;;;;;;;1.20;1.10;;;11.10;99.90;;;;;;4903620;29;20822;-82
2021/05/06 13:39:40;;;;;;;5.53;1.30;;;11.60;99.90;;;;;;4948898;23;20421;-80
2021/05/06 13:42:06;;;;;;;0.90;0.90;;;11.80;99.90;;;;;;4902644;29;20404;-82
2021/05/06 13:44:34;;;;;;;0.93;0.93;;;12.40;99.90;;;;;;4915674;28;20455;-82
2021/05/06 13:47:05;;;;;;;1.00;1.00;;;13.00;99.90;;;;;;4953131;28;20395;-81
2021/05/06 13:49:32;;;;;;;1.10;1.00;;;13.20;99.90;;;;;;4939289;29;20396;-82
2021/05/06 13:51:58;;;;;;;1.00;1.00;;;13.80;99.90;;;;;;4949409;28;20410;-81
2021/05/06 13:54:27;;;;;;;1.00;1.00;;;14.10;99.90;;;;;;4922569;29;20415;-79
2021/05/06 13:56:54;;;;;;;0.90;0.90;;;13.90;99.90;;;;;;4936270;29;20972;-80
2021/05/06 13:59:19;;;;;;;1.00;0.95;;;13.70;99.90;;;;;;4906605;29;20407;-81
2021/05/06 14:01:52;;;;;;;0.90;0.90;;;13.30;99.90;;;;;;4925432;29;20483;-80
2021/05/06 14:04:17;;;;;;;0.90;0.90;;;13.30;99.90;;;;;;4902191;29;20402;-83
2021/05/06 14:06:43;;;;;;;0.80;0.80;;;13.20;99.90;;;;;;4922334;28;20915;-82
2021/05/06 14:09:15;;;;;;;0.90;0.90;;;13.20;99.90;;;;;;4934621;29;21116;-82
2021/05/06 14:11:41;;;;;;;2.40;0.90;;;12.50;99.90;;;;;;4909763;29;20427;-82
2021/05/06 14:14:07;;;;;;;1.00;1.00;;;12.60;99.90;;;;;;4907828;29;20455;-82
2021/05/06 14:16:33;;;;;;;1.30;1.20;;;12.60;99.90;;;;;;4883585;29;20397;-82
2021/05/06 14:18:59;;;;;;;1.20;1.10;;;12.60;99.90;;;;;;4928993;29;20407;-82
2021/05/06 14:21:25;;;;;;;1.70;1.00;;;12.70;99.90;;;;;;4897851;29;20905;-80
2021/05/06 14:23:51;;;;;;;0.82;0.82;;;12.90;99.90;;;;;;4899262;28;20429;-81
2021/05/06 14:26:18;;;;;;;0.98;0.98;;;12.70;99.90;;;;;;4931048;29;20412;-82
2021/05/06 14:28:44;;;;;;;1.05;1.05;;;12.70;99.90;;;;;;4887747;29;20496;-81
2021/05/06 14:31:10;;;;;;;1.00;1.00;;;12.70;99.90;;;;;;4887419;29;20482;-82
2021/05/06 14:33:36;;;;;;;1.00;1.00;;;12.60;99.90;;;;;;4908110;29;20443;-80
2021/05/06 14:36:08;;;;;;;1.60;1.10;;;12.90;99.90;;;;;;4898156;28;20404;-80
2021/05/06 14:38:34;;;;;;;0.98;0.98;;;12.90;99.90;;;;;;4894032;29;20493;-80
2021/05/06 14:40:59;;;;;;;0.85;0.85;;;13.10;99.90;;;;;;4916868;29;20427;-81
2021/05/06 14:43:26;;;;;;;1.00;1.00;;;13.40;99.90;;;;;;4925723;28;20469;-82
2021/05/06 14:45:52;;;;;;;0.83;0.83;;;13.70;99.90;;;;;;4893804;29;20422;-81
2021/05/06 14:48:18;;;;;;;1.50;0.93;;;13.60;99.90;;;;;;4878594;29;20556;-82
2021/05/06 14:50:44;;;;;;;1.00;1.00;;;14.10;99.90;;;;;;4924197;29;20913;-81
2021/05/06 14:53:10;;;;;;;1.40;1.20;;;14.20;99.90;;;;;;4904164;29;20932;-81
2021/05/06 14:55:36;;;;;;;1.10;1.10;;;14.40;99.90;;;;;;4912566;29;20427;-81
2021/05/06 14:58:02;;;;;;;2.08;1.52;;;14.60;99.90;;;;;;4923050;29;20450;-79
2021/05/06 15:00:29;;;;;;;1.07;1.07;;;15.00;99.90;;;;;;4896818;29;20399;-79
2021/05/06 15:02:54;;;;;;;1.15;1.05;;;15.10;99.90;;;;;;4919032;28;20416;-79
2021/05/06 15:05:21;;;;;;;1.20;1.10;;;15.10;99.90;;;;;;4909696;28;20777;-79
2021/05/06 15:07:47;;;;;;;2.10;0.88;;;14.90;99.90;;;;;;4918332;28;20419;-79
2021/05/06 15:10:13;;;;;;;0.80;0.80;;;14.90;99.90;;;;;;4918336;29;20399;-79
2021/05/06 15:12:42;;;;;;;1.13;1.02;;;14.60;99.90;;;;;;4890585;29;20423;-82
2021/05/06 15:15:19;;;;;;;1.20;1.00;;;14.30;99.90;;;;;;4923220;28;20425;-81
2021/05/06 15:17:51;;;;;;;1.10;1.00;;;14.00;99.90;;;;;;4928482;29;20406;-82
2021/05/06 15:20:17;;;;;;;1.00;1.00;;;13.70;99.90;;;;;;4873404;28;20429;-83
2021/05/06 15:22:45;;;;;;;1.52;1.05;;;13.60;99.90;;;;;;4927154;29;20448;-83
2021/05/06 15:25:21;;;;;;;1.40;1.10;;;13.40;99.90;;;;;;4933252;28;20906;-83
2021/05/06 15:27:57;;;;;;;1.10;0.93;;;13.00;99.90;;;;;;4913916;29;20471;-81
2021/05/06 15:30:25;;;;;;;0.80;0.80;;;13.00;99.90;;;;;;4907271;28;20408;-82
2021/05/06 15:32:58;;;;;;;0.80;0.80;;;12.80;99.90;;;;;;4920823;29;21121;-82
2021/05/06 15:35:27;;;;;;;1.00;1.00;;;12.80;99.90;;;;;;4928414;29;20408;-80
2021/05/06 15:38:04;;;;;;;1.05;1.02;;;12.70;99.90;;;;;;4908498;29;20913;-80
2021/05/06 15:41:15;;;;;;;4.00;1.10;;;12.70;99.90;;;;;;4946096;28;20790;-81
2021/05/06 15:43:56;;;;;;;0.98;0.98;;;12.50;99.90;;;;;;4861889;29;20829;-80
2021/05/06 15:46:59;;;;;;;1.38;1.27;;;12.60;99.90;;;;;;4898000;28;20488;-80
2021/05/06 15:49:34;;;;;;;1.17;1.00;;;12.50;99.90;;;;;;4903384;29;20502;-80
2021/05/06 15:52:03;;;;;;;0.98;0.98;;;12.40;99.90;;;;;;4884282;29;20423;-79
2021/05/06 15:54:29;;;;;;;0.80;0.80;;;12.50;99.90;;;;;;4909781;29;20474;-80
2021/05/06 15:56:55;;;;;;;0.90;0.90;;;12.50;99.90;;;;;;4927935;29;20432;-80
2021/05/06 15:59:52;;;;;;;0.90;0.90;;;12.20;99.90;;;;;;4913207;29;20906;-80
2021/05/06 16:03:11;;;;;;;0.80;0.80;;;12.20;99.90;;;;;;4879102;29;20544;-80
2021/05/06 16:05:39;;;;;;;1.25;1.10;;;12.00;99.90;;;;;;4908805;29;20403;-82
2021/05/06 16:08:18;;;;;;;1.35;0.90;;;12.00;99.90;;;;;;4898908;29;21001;-83
2021/05/06 16:10:53;;;;;;;1.40;1.10;;;11.80;99.90;;;;;;4901403;29;20403;-82
2021/05/06 16:13:24;;;;;;;2.90;2.50;;;11.90;99.90;;;;;;4951826;28;22357;-80
2021/05/06 16:15:49;;;;;;;1.17;1.08;;;11.80;99.90;;;;;;4908853;29;20507;-80
2021/05/06 16:18:16;;;;;;;2.85;2.13;;;11.70;99.90;;;;;;4905766;29;20492;-81
2021/05/06 16:20:43;;;;;;;2.28;1.63;;;11.60;99.90;;;;;;4907916;29;20419;-82
2021/05/06 16:23:39;;;;;;;1.77;1.67;;;11.70;99.90;;;;;;4924420;29;20452;-82
2021/05/06 16:26:10;;;;;;;1.10;1.10;;;11.80;99.90;;;;;;4946065;28;20407;-82
2021/05/06 16:28:37;;;;;;;1.30;1.20;;;11.70;99.90;;;;;;4909452;29;20411;-81
2021/05/06 16:31:03;;;;;;;1.40;1.20;;;11.50;99.90;;;;;;4908412;29;20435;-82
2021/05/06 16:33:35;;;;;;;0.90;0.90;;;11.40;99.90;;;;;;4889827;29;20423;-78
2021/05/06 16:38:37;;;;;;;0.93;0.93;;;11.20;99.90;;;;;;4914158;29;20490;-80
2021/05/06 16:41:08;;;;;;;1.37;1.27;;;10.90;99.90;;;;;;4904782;29;20412;-79
2021/05/06 16:43:37;;;;;;;1.45;1.30;;;11.20;99.90;;;;;;4886842;29;20411;-79
2021/05/06 16:46:04;;;;;;;1.20;1.10;;;11.20;99.90;;;;;;4910811;28;20408;-79
2021/05/06 16:48:30;;;;;;;1.30;1.20;;;11.10;99.90;;;;;;4895330;29;20411;-80
2021/05/06 16:50:56;;;;;;;2.17;1.20;;;11.20;99.90;;;;;;4902030;28;20418;-81
2021/05/06 16:53:21;;;;;;;2.03;1.83;;;11.00;99.90;;;;;;4927163;29;21012;-81
2021/05/06 16:55:47;;;;;;;2.00;1.70;;;10.90;99.90;;;;;;4922337;29;20390;-79
2021/05/06 16:58:13;;;;;;;1.40;1.30;;;10.80;99.90;;;;;;4912241;28;20430;-79
2021/05/06 17:00:40;;;;;;;1.25;1.15;;;10.60;99.90;;;;;;4897442;29;20410;-80
2021/05/06 17:03:07;;;;;;;1.23;1.00;;;10.50;99.90;;;;;;4932902;29;20478;-79
2021/05/06 17:05:33;;;;;;;0.90;0.90;;;10.40;99.90;;;;;;4910622;29;20436;-80
2021/05/06 17:07:58;;;;;;;1.77;1.23;;;10.30;99.90;;;;;;4906637;29;20427;-78
2021/05/06 17:10:24;;;;;;;1.00;1.00;;;10.30;99.90;;;;;;4907324;29;20443;-79
2021/05/06 17:12:50;;;;;;;1.10;1.10;;;10.30;99.90;;;;;;4898314;29;20902;-80
2021/05/06 17:15:19;;;;;;;1.07;1.07;;;10.10;99.90;;;;;;4888823;28;20988;-80
2021/05/06 17:17:44;;;;;;;1.50;1.40;;;10.10;99.90;;;;;;4916800;29;20418;-79
2021/05/06 17:20:10;;;;;;;1.25;1.25;;;10.00;99.90;;;;;;4908055;29;20397;-81
2021/05/06 17:22:41;;;;;;;1.20;1.10;;;10.00;99.90;;;;;;4930143;28;20408;-82
2021/05/06 17:25:08;;;;;;;1.60;1.48;;;9.90;99.90;;;;;;4913056;29;20478;-82